Time;durP1;ratioP1;P1;durP2;ratioP2;P2;SDS_P1;SDS_P2;PMS_P1;PMS_P2;Temp;Humidity;BMP_temperature;BMP_pressure;BME280_temperature;BME280_humidity;BME280_pressure;Samples;Min_cycle;Max_cycle;Signal;HPM_P1;HPM_P2
2021/03/20 00:04:44;;;;;;;7.03;3.53;;;;;;;-1.05;59.57;101733.47;8977703;32;20225;-75
2021/03/20 00:09:52;;;;;;;5.27;3.43;;;;;;;-1.13;60.08;101727.41;8978241;32;20289;-74
2021/03/20 00:14:54;;;;;;;17.93;7.53;;;;;;;-1.22;60.03;101723.13;8978341;32;20277;-74
2021/03/20 00:19:57;;;;;;;15.00;6.47;;;;;;;-1.25;60.16;101729.28;8978035;32;20311;-73
2021/03/20 00:24:59;;;;;;;16.50;6.43;;;;;;;-1.34;59.86;101732.03;8978335;32;20235;-75
2021/03/20 00:30:06;;;;;;;19.50;8.20;;;;;;;-1.34;60.23;101732.03;8977339;32;20228;-75
2021/03/20 00:35:11;;;;;;;21.70;9.43;;;;;;;-1.38;60.25;101727.66;8977865;32;20228;-75
2021/03/20 00:40:18;;;;;;;10.93;5.83;;;;;;;-1.41;60.41;101732.97;8977723;32;20229;-75
2021/03/20 00:45:23;;;;;;;6.50;4.37;;;;;;;-1.49;60.63;101735.66;8977804;32;20233;-75
2021/03/20 00:50:26;;;;;;;11.23;5.37;;;;;;;-1.46;60.45;101735.63;8951385;32;20232;-75
2021/03/20 00:55:29;;;;;;;7.33;4.23;;;;;;;-1.53;60.65;101741.00;8951499;32;20225;-75
2021/03/20 01:00:31;;;;;;;3.87;2.77;;;;;;;-1.83;60.91;101742.16;8977025;32;20213;-75
2021/03/20 01:05:38;;;;;;;3.97;2.63;;;;;;;-1.81;61.11;101740.34;8977147;32;20639;-75
2021/03/20 01:10:41;;;;;;;4.03;2.73;;;;;;;-1.66;61.11;101727.06;8976370;32;20275;-75
2021/03/20 01:15:44;;;;;;;4.53;2.90;;;;;;;-1.63;61.17;101725.25;8951361;32;20381;-75
2021/03/20 01:20:48;;;;;;;6.97;4.90;;;;;;;-1.67;61.08;101736.72;8977045;32;20227;-75
2021/03/20 01:25:50;;;;;;;7.83;4.00;;;;;;;-1.71;61.23;101728.84;8976460;32;20228;-74
2021/03/20 01:30:53;;;;;;;6.00;3.87;;;;;;;-1.81;61.21;101724.53;8977810;32;20236;-75
2021/03/20 01:35:56;;;;;;;7.07;3.60;;;;;;;-1.76;61.43;101720.97;8950681;32;20255;-75
2021/03/20 01:41:01;;;;;;;7.30;4.07;;;;;;;-1.86;61.52;101719.34;8975290;32;20216;-75
2021/03/20 01:46:38;;;;;;;5.57;3.63;;;;;;;-1.87;61.29;101736.00;8975250;32;20851;-75
2021/03/20 01:51:43;;;;;;;3.27;2.90;;;;;;;-1.95;61.60;101743.09;8968458;32;20232;-75
2021/03/20 01:56:46;;;;;;;3.73;2.70;;;;;;;-1.92;62.04;101745.69;8975101;32;20710;-75
2021/03/20 02:01:48;;;;;;;6.30;3.40;;;;;;;-1.92;61.93;101749.22;8974666;32;20220;-75
2021/03/20 02:06:52;;;;;;;6.10;3.60;;;;;;;-1.92;61.86;101743.97;8949399;32;20244;-75
2021/03/20 02:12:05;;;;;;;7.67;3.90;;;;;;;-1.91;61.63;101750.09;8974277;32;20235;-75
2021/03/20 02:17:27;;;;;;;10.43;4.30;;;;;;;-1.85;61.62;101755.31;8974326;32;20883;-75
2021/03/20 02:23:07;;;;;;;6.50;4.27;;;;;;;-1.86;61.68;101758.84;8973227;32;20245;-75
2021/03/20 02:29:17;;;;;;;5.40;2.97;;;;;;;-1.90;61.91;101751.84;8853761;32;20225;-75
2021/03/20 02:34:31;;;;;;;4.83;3.07;;;;;;;-1.96;61.73;101749.25;8731374;33;20285;-75
2021/03/20 02:39:47;;;;;;;5.80;3.20;;;;;;;-2.04;61.54;101746.66;8892368;32;20229;-75
2021/03/20 02:44:58;;;;;;;5.97;3.47;;;;;;;-2.12;62.09;101761.66;8919656;32;20232;-75
2021/03/20 02:50:08;;;;;;;5.33;3.47;;;;;;;-2.14;62.43;101756.41;8915117;32;20293;-74
2021/03/20 02:55:20;;;;;;;5.33;3.50;;;;;;;-2.16;62.28;101745.00;8913380;32;20221;-74
2021/03/20 03:00:27;;;;;;;7.40;3.27;;;;;;;-2.22;63.30;101745.06;8912556;32;20232;-74
2021/03/20 03:05:37;;;;;;;5.60;2.90;;;;;;;-2.56;65.06;101742.59;8912757;32;20239;-74
2021/03/20 03:10:45;;;;;;;5.10;3.43;;;;;;;-2.64;65.21;101741.75;8912558;32;20745;-73
2021/03/20 03:15:54;;;;;;;4.30;3.23;;;;;;;-2.78;65.79;101747.06;8913085;32;20221;-74
2021/03/20 03:21:01;;;;;;;6.47;3.50;;;;;;;-2.83;65.49;101742.72;8912064;32;20217;-74
2021/03/20 03:26:09;;;;;;;6.37;3.27;;;;;;;-2.67;65.06;101736.50;8912752;32;20249;-74
2021/03/20 03:31:27;;;;;;;5.73;3.20;;;;;;;-2.65;64.48;101734.75;8912320;32;20253;-73
2021/03/20 03:36:38;;;;;;;8.07;3.70;;;;;;;-2.72;64.91;101740.91;8912932;32;20675;-74
2021/03/20 03:41:40;;;;;;;6.17;4.00;;;;;;;-2.85;65.81;101744.47;8912536;32;20217;-73
2021/03/20 03:46:46;;;;;;;10.40;4.20;;;;;;;-2.89;66.47;101737.47;8912295;32;20233;-74
2021/03/20 03:51:51;;;;;;;6.30;3.80;;;;;;;-2.84;65.93;101748.88;8912477;32;20221;-74
2021/03/20 03:57:28;;;;;;;6.20;3.80;;;;;;;-2.67;65.57;101744.41;8913640;32;20892;-75
2021/03/20 04:02:57;;;;;;;7.40;3.97;;;;;;;-2.54;64.72;101742.59;8911818;32;20221;-74
2021/03/20 04:08:16;;;;;;;5.40;4.03;;;;;;;-2.49;64.17;101747.84;8972630;32;20258;-75
2021/03/20 04:13:30;;;;;;;5.63;4.50;;;;;;;-2.58;63.90;101748.75;8972278;32;20223;-74
2021/03/20 04:18:41;;;;;;;6.77;4.10;;;;;;;-2.55;63.79;101747.00;8972665;32;20217;-74
2021/03/20 04:24:09;;;;;;;8.43;4.53;;;;;;;-2.41;63.59;101741.66;8972233;32;20229;-75
2021/03/20 04:29:26;;;;;;;7.77;4.77;;;;;;;-2.36;63.40;101744.22;8972374;32;20229;-74
2021/03/20 04:34:37;;;;;;;4.40;3.87;;;;;;;-2.29;63.37;101753.84;8971889;32;20740;-75
2021/03/20 04:39:45;;;;;;;7.20;4.03;;;;;;;-2.29;63.24;101754.72;8972059;32;20732;-74
2021/03/20 04:44:49;;;;;;;7.50;3.80;;;;;;;-2.19;63.21;101754.69;8973952;32;20311;-75
2021/03/20 04:49:58;;;;;;;7.57;4.70;;;;;;;-2.14;62.93;101748.50;8976995;32;21404;-73
2021/03/20 04:55:06;;;;;;;6.27;4.13;;;;;;;-2.08;62.58;101750.22;8948442;32;20271;-74
2021/03/20 05:00:17;;;;;;;6.73;3.87;;;;;;;-2.12;62.72;101754.63;8916341;32;20261;-74
2021/03/20 05:05:27;;;;;;;7.30;4.40;;;;;;;-2.16;62.63;101739.75;8916186;32;20236;-74
2021/03/20 05:10:38;;;;;;;5.67;3.53;;;;;;;-2.22;62.55;101744.16;8915696;32;20221;-74
2021/03/20 05:15:40;;;;;;;7.63;3.87;;;;;;;-2.30;62.95;101760.88;8914491;32;20741;-75
2021/03/20 05:20:43;;;;;;;4.93;4.20;;;;;;;-2.33;63.17;101755.66;8915156;32;20235;-74
2021/03/20 05:25:46;;;;;;;5.93;4.10;;;;;;;-2.25;63.25;101757.34;8915254;32;20225;-73
2021/03/20 05:30:48;;;;;;;5.40;3.83;;;;;;;-2.38;63.37;101748.66;8937919;32;20217;-75
2021/03/20 05:35:50;;;;;;;8.87;3.83;;;;;;;-2.42;63.54;101760.94;8914867;32;20233;-75
2021/03/20 05:41:00;;;;;;;4.73;3.83;;;;;;;-2.31;63.97;101755.63;8914601;32;20331;-74
2021/03/20 05:46:20;;;;;;;5.00;4.07;;;;;;;-2.19;64.09;101752.06;8916181;32;20237;-74
2021/03/20 05:51:43;;;;;;;7.07;3.83;;;;;;;-2.22;63.34;101747.69;8921837;32;20244;-75
2021/03/20 05:56:59;;;;;;;7.10;3.60;;;;;;;-2.48;64.79;101754.84;8963222;32;20221;-75
2021/03/20 06:02:20;;;;;;;7.97;4.43;;;;;;;-2.48;65.18;101760.97;8949052;32;20212;-75
2021/03/20 06:08:09;;;;;;;6.83;4.27;;;;;;;-2.29;64.87;101761.75;8975035;32;20639;-74
2021/03/20 06:13:31;;;;;;;8.03;4.23;;;;;;;-2.13;64.02;101754.66;8971685;32;20740;-75
2021/03/20 06:19:03;;;;;;;8.43;3.90;;;;;;;-1.87;63.65;101765.84;8950324;32;20247;-75
2021/03/20 06:24:34;;;;;;;8.37;4.70;;;;;;;-1.73;63.66;101772.78;8974372;32;20228;-75
2021/03/20 06:29:47;;;;;;;14.00;7.10;;;;;;;-1.42;63.70;101795.38;8974814;32;20232;-74
2021/03/20 06:34:56;;;;;;;6.90;4.47;;;;;;;-1.12;62.77;101797.75;8949397;32;20777;-75
2021/03/20 06:40:05;;;;;;;6.17;4.33;;;;;;;-0.83;61.88;101790.38;8926004;32;20225;-75
2021/03/20 06:45:19;;;;;;;9.93;4.20;;;;;;;-0.77;60.04;101779.78;8912012;32;20269;-75
2021/03/20 06:50:25;;;;;;;8.27;4.43;;;;;;;-0.94;59.51;101792.25;8913760;32;20229;-75
2021/03/20 06:55:31;;;;;;;8.80;4.73;;;;;;;-0.61;60.32;101787.47;8912801;32;20232;-75
2021/03/20 07:00:36;;;;;;;8.90;4.80;;;;;;;0.05;59.21;101794.50;8913198;32;20838;-75
2021/03/20 07:05:47;;;;;;;9.00;4.97;;;;;;;0.51;57.52;101799.94;8912351;32;20330;-75
2021/03/20 07:10:51;;;;;;;7.70;4.93;;;;;;;0.75;56.72;101798.66;8911314;32;20221;-75
2021/03/20 07:16:10;;;;;;;4.03;3.40;;;;;;;0.85;56.15;101812.63;8913518;32;20229;-75
2021/03/20 07:21:30;;;;;;;10.50;5.70;;;;;;;1.11;56.56;101821.84;8912507;32;20295;-75
2021/03/20 07:26:49;;;;;;;8.90;5.20;;;;;;;1.94;54.52;101815.72;8911391;32;20267;-75
2021/03/20 07:31:54;;;;;;;8.98;4.95;;;;;;;3.04;50.36;101814.81;8911258;32;20225;-75
2021/03/20 07:37:14;;;;;;;6.22;4.43;;;;;;;2.69;49.88;101819.28;8912587;32;20226;-74
2021/03/20 07:42:34;;;;;;;5.22;4.03;;;;;;;2.75;49.25;101834.16;8911905;32;20225;-75
2021/03/20 07:47:40;;;;;;;7.90;4.00;;;;;;;3.13;48.49;101821.69;8912319;32;20224;-75
2021/03/20 07:52:43;;;;;;;9.83;4.87;;;;;;;2.60;49.58;101828.31;8909753;32;20234;-75
2021/03/20 07:57:52;;;;;;;5.97;3.37;;;;;;;2.92;48.41;101828.41;8850227;33;20432;-75
2021/03/20 08:03:05;;;;;;;5.10;3.50;;;;;;;3.85;45.73;101828.44;8851261;33;20230;-75
2021/03/20 08:08:20;;;;;;;4.63;2.80;;;;;;;3.64;45.16;101821.97;8850093;33;20222;-76
2021/03/20 08:13:35;;;;;;;3.93;2.70;;;;;;;2.89;45.08;101834.69;8827337;33;20761;-75
2021/03/20 08:18:40;;;;;;;3.77;2.53;;;;;;;3.40;43.75;101839.50;8852964;33;20244;-75
2021/03/20 08:24:16;;;;;;;4.27;2.63;;;;;;;3.82;41.55;101833.88;8856296;33;20253;-75
2021/03/20 08:29:44;;;;;;;5.90;3.00;;;;;;;3.24;44.04;101824.91;8855321;33;20245;-75
2021/03/20 08:35:11;;;;;;;4.50;2.67;;;;;;;2.39;44.93;101831.47;8856273;33;20241;-74
2021/03/20 08:40:29;;;;;;;2.43;2.23;;;;;;;3.11;45.52;101829.69;8858583;33;20749;-75
2021/03/20 08:45:36;;;;;;;4.30;2.13;;;;;;;4.40;41.77;101824.06;8857690;33;20224;-76
2021/03/20 08:50:55;;;;;;;4.80;2.50;;;;;;;4.49;40.41;101819.38;8856263;33;20233;-75
2021/03/20 08:56:15;;;;;;;5.65;1.80;;;;;;;4.87;37.93;101812.75;8894976;32;20225;-75
2021/03/20 09:01:35;;;;;;;2.17;1.40;;;;;;;4.56;35.71;101807.59;8916521;32;20569;-75
2021/03/20 09:06:43;;;;;;;2.20;1.55;;;;;;;4.72;36.63;101798.19;8916559;32;20684;-74
2021/03/20 09:11:53;;;;;;;3.53;1.80;;;;;;;4.22;37.12;101802.50;8915886;32;20228;-76
2021/03/20 09:17:00;;;;;;;2.95;1.80;;;;;;;4.06;38.57;101795.03;8916677;32;20304;-75
2021/03/20 09:22:10;;;;;;;5.47;1.83;;;;;;;4.30;36.46;101793.34;8915977;32;20262;-74
2021/03/20 09:27:13;;;;;;;1.73;1.27;;;;;;;4.07;35.67;101785.25;8916015;32;20224;-74
2021/03/20 09:32:18;;;;;;;3.50;1.70;;;;;;;3.84;36.17;101791.25;8914981;32;21150;-74
2021/03/20 09:37:50;;;;;;;2.93;1.63;;;;;;;4.41;35.20;101779.69;8914811;32;20286;-74
2021/03/20 09:42:53;;;;;;;1.47;1.37;;;;;;;4.40;35.78;101791.28;8915204;32;20227;-74
2021/03/20 09:47:57;;;;;;;3.07;1.63;;;;;;;4.84;36.08;101780.91;8915304;32;20619;-74
2021/03/20 09:53:36;;;;;;;2.00;1.80;;;;;;;4.91;35.70;101787.78;8915147;32;20221;-75
2021/03/20 09:58:42;;;;;;;4.03;2.33;;;;;;;5.38;35.61;101785.22;8915736;32;20734;-75
2021/03/20 10:04:08;;;;;;;4.15;2.03;;;;;;;6.29;34.65;101789.69;8913220;32;20225;-75
2021/03/20 10:09:25;;;;;;;2.45;2.25;;;;;;;7.01;34.43;101782.19;8915179;32;20221;-75
2021/03/20 10:14:32;;;;;;;2.08;1.65;;;;;;;8.01;32.70;101784.75;8914557;32;20761;-74
2021/03/20 10:19:41;;;;;;;4.32;1.95;;;;;;;7.27;33.78;101781.06;8913916;32;20225;-74
2021/03/20 10:24:50;;;;;;;2.78;1.60;;;;;;;6.09;33.66;101795.84;8914721;32;20810;-74
2021/03/20 10:29:52;;;;;;;1.95;1.77;;;;;;;5.85;33.00;101784.34;8918586;32;20225;-75
2021/03/20 10:34:57;;;;;;;3.85;2.22;;;;;;;5.91;33.09;101774.28;8916315;32;20230;-73
2021/03/20 10:40:13;;;;;;;3.83;2.00;;;;;;;5.87;34.34;101762.03;8914187;32;20225;-74
2021/03/20 10:45:23;;;;;;;3.25;2.10;;;;;;;6.70;32.81;101752.41;8912274;32;20221;-72
2021/03/20 10:50:31;;;;;;;3.35;2.03;;;;;;;5.63;32.06;101742.50;8913917;32;20304;-72
2021/03/20 10:55:41;;;;;;;4.15;2.38;;;;;;;6.55;32.21;101744.09;8913216;32;20244;-72
2021/03/20 11:00:47;;;;;;;4.50;2.30;;;;;;;8.13;29.58;101738.69;8913231;32;20638;-72
2021/03/20 11:05:50;;;;;;;2.30;1.63;;;;;;;5.69;31.42;101749.41;8915419;32;20613;-72
2021/03/20 11:11:16;;;;;;;3.58;2.00;;;;;;;6.71;30.32;101728.28;8913599;32;21497;-72
2021/03/20 11:16:21;;;;;;;2.83;2.53;;;;;;;7.97;27.29;101730.53;8913293;32;20758;-74
2021/03/20 11:21:33;;;;;;;2.92;2.10;;;;;;;9.51;27.26;101731.50;8913406;32;20218;-74
2021/03/20 11:26:41;;;;;;;2.42;1.65;;;;;;;10.60;25.06;101727.94;8913059;32;20225;-75
2021/03/20 11:31:53;;;;;;;2.17;1.77;;;;;;;9.43;28.54;101723.00;8912810;32;21433;-75
2021/03/20 11:36:57;;;;;;;3.55;1.42;;;;;;;9.53;27.10;101718.00;8912965;32;20224;-75
2021/03/20 11:42:05;;;;;;;2.22;1.42;;;;;;;10.46;26.11;101701.91;8912616;32;20278;-75
2021/03/20 11:47:23;;;;;;;3.70;1.75;;;;;;;9.77;27.38;101702.34;8912582;32;20674;-73
2021/03/20 11:52:46;;;;;;;3.53;1.40;;;;;;;7.94;26.74;101694.09;8913601;32;20934;-75
2021/03/20 11:57:50;;;;;;;4.43;1.63;;;;;;;7.12;29.05;101690.00;8857907;33;20252;-75
2021/03/20 12:02:52;;;;;;;4.10;2.00;;;;;;;7.08;30.67;101680.41;8857532;33;20222;-75
2021/03/20 12:08:26;;;;;;;2.63;1.95;;;;;;;8.24;27.69;101657.84;8911326;32;20222;-75
2021/03/20 12:13:43;;;;;;;2.47;1.95;;;;;;;8.29;29.35;101662.00;8899707;32;20229;-75
2021/03/20 12:18:45;;;;;;;3.72;1.70;;;;;;;7.60;29.79;101641.38;8917043;32;21495;-75
2021/03/20 12:23:56;;;;;;;2.90;1.80;;;;;;;7.02;30.10;101638.78;8917102;32;20287;-74
2021/03/20 12:29:24;;;;;;;2.55;1.85;;;;;;;6.93;30.50;101629.38;8916084;32;20221;-75
2021/03/20 12:34:30;;;;;;;4.32;2.95;;;;;;;7.51;30.48;101612.41;8916370;32;20359;-75
2021/03/20 12:39:32;;;;;;;3.38;2.05;;;;;;;7.87;28.19;101612.41;8909054;32;20222;-74
2021/03/20 12:44:44;;;;;;;3.78;2.22;;;;;;;7.84;28.57;101603.66;8916299;32;20264;-74
2021/03/20 12:49:46;;;;;;;2.80;1.67;;;;;;;6.95;30.40;101590.13;8916294;32;20248;-74
2021/03/20 12:54:55;;;;;;;2.22;1.63;;;;;;;6.18;30.97;101587.34;8915908;32;20241;-74
2021/03/20 12:59:58;;;;;;;2.25;1.42;;;;;;;5.82;30.44;101585.31;8916311;32;20220;-73
2021/03/20 13:05:00;;;;;;;3.03;1.90;;;;;;;6.05;30.40;101572.78;8924535;32;20220;-73
2021/03/20 13:10:04;;;;;;;2.72;1.90;;;;;;;6.46;31.96;101560.28;8976232;32;20237;-73
2021/03/20 13:15:08;;;;;;;2.78;2.20;;;;;;;6.21;32.47;101551.66;8976624;32;20221;-74
2021/03/20 13:20:12;;;;;;;3.10;2.10;;;;;;;6.49;31.75;101548.59;8977315;32;20721;-74
2021/03/20 13:25:22;;;;;;;3.70;2.03;;;;;;;6.24;33.05;101544.38;8948625;32;20290;-74
2021/03/20 13:30:33;;;;;;;3.42;2.50;;;;;;;6.61;31.88;101530.22;8958659;32;20226;-74
2021/03/20 13:35:38;;;;;;;2.13;1.70;;;;;;;7.54;31.81;101528.47;8963400;32;20314;-73
2021/03/20 13:40:42;;;;;;;4.03;2.38;;;;;;;6.55;32.55;101521.63;8968168;32;20248;-74
2021/03/20 13:45:45;;;;;;;3.67;2.50;;;;;;;7.63;31.28;101523.56;8954052;32;21473;-74
2021/03/20 13:50:48;;;;;;;3.63;2.30;;;;;;;7.05;31.74;101511.25;8939544;32;20232;-74
2021/03/20 13:55:53;;;;;;;4.53;2.63;;;;;;;6.60;32.79;101520.47;8935469;32;20233;-74
2021/03/20 14:00:56;;;;;;;2.83;2.30;;;;;;;6.41;34.78;101514.25;8930420;32;20230;-75
2021/03/20 14:05:59;;;;;;;3.25;2.50;;;;;;;5.91;33.93;101512.91;8953926;32;20831;-74
2021/03/20 14:11:04;;;;;;;2.28;1.83;;;;;;;5.67;35.49;101512.16;8954810;32;20232;-72
2021/03/20 14:16:08;;;;;;;4.72;2.10;;;;;;;4.89;37.33;101514.47;8936071;32;20229;-72
2021/03/20 14:21:18;;;;;;;4.10;2.53;;;;;;;5.06;37.33;101499.59;8956070;32;20253;-72
2021/03/20 14:26:20;;;;;;;3.30;2.78;;;;;;;5.33;36.61;101501.19;8926530;32;20217;-73
2021/03/20 14:31:23;;;;;;;4.22;2.63;;;;;;;5.45;37.47;101508.66;8926640;32;20221;-72
2021/03/20 14:36:26;;;;;;;4.30;3.10;;;;;;;5.52;38.08;101491.50;8915748;32;21528;-73
2021/03/20 14:41:28;;;;;;;3.55;2.70;;;;;;;5.52;39.52;101488.84;8937673;32;20274;-72
2021/03/20 14:46:31;;;;;;;3.85;2.58;;;;;;;5.79;37.73;101494.78;8935606;32;20225;-73
2021/03/20 14:51:33;;;;;;;3.83;2.33;;;;;;;5.67;38.26;101487.31;8947485;32;20256;-72
2021/03/20 14:56:36;;;;;;;4.55;3.00;;;;;;;5.40;39.06;101478.69;8938446;32;20220;-73
2021/03/20 15:01:39;;;;;;;4.10;3.20;;;;;;;5.58;39.57;101443.25;8941712;32;20239;-73
2021/03/20 15:06:42;;;;;;;4.60;3.10;;;;;;;5.46;39.43;101455.31;8927990;32;20350;-72
2021/03/20 15:11:44;;;;;;;4.65;3.38;;;;;;;5.44;40.92;101451.84;8932546;32;20714;-73
2021/03/20 15:16:47;;;;;;;4.32;2.60;;;;;;;5.54;40.30;101443.44;8931536;32;20221;-73
2021/03/20 15:21:49;;;;;;;4.32;3.13;;;;;;;6.13;39.91;101439.94;8932600;32;20256;-74
2021/03/20 15:26:51;;;;;;;2.33;1.85;;;;;;;6.27;37.95;101426.81;8933583;32;20243;-73
2021/03/20 15:31:54;;;;;;;5.60;3.15;;;;;;;5.71;40.08;101420.47;8937253;32;20253;-73
2021/03/20 15:36:57;;;;;;;5.57;3.05;;;;;;;6.07;40.43;101408.22;8942499;32;21989;-73
2021/03/20 15:41:59;;;;;;;6.93;3.88;;;;;;;5.73;41.68;101407.94;8927189;32;20217;-74
2021/03/20 15:47:08;;;;;;;9.95;3.75;;;;;;;6.16;40.28;101394.44;8937805;32;20307;-73
2021/03/20 15:52:10;;;;;;;7.15;3.45;;;;;;;6.44;39.64;101387.78;8928538;32;20218;-73
2021/03/20 15:57:12;;;;;;;4.65;3.35;;;;;;;6.37;40.14;101389.91;8933722;32;20229;-72
2021/03/20 16:02:15;;;;;;;8.30;4.40;;;;;;;5.80;41.43;101384.50;8929449;32;20221;-73
2021/03/20 16:07:18;;;;;;;7.47;5.00;;;;;;;5.62;43.22;101372.88;8961294;32;20216;-73
2021/03/20 16:12:20;;;;;;;7.75;4.05;;;;;;;5.68;43.07;101364.63;8969239;32;20220;-73
2021/03/20 16:17:23;;;;;;;8.40;3.92;;;;;;;5.71;42.89;101364.47;8913197;32;20221;-74
2021/03/20 16:22:25;;;;;;;9.60;4.43;;;;;;;5.18;43.75;101364.16;8970886;32;20305;-73
2021/03/20 16:27:28;;;;;;;7.43;5.10;;;;;;;5.15;44.18;101358.97;8967055;32;20224;-74
2021/03/20 16:32:31;;;;;;;9.82;5.60;;;;;;;5.59;45.09;101350.81;8965451;32;21334;-73
2021/03/20 16:37:34;;;;;;;9.57;5.68;;;;;;;5.20;45.12;101348.97;8970451;32;20239;-71
2021/03/20 16:42:37;;;;;;;10.45;5.53;;;;;;;5.08;46.33;101344.19;8972450;32;20263;-72
2021/03/20 16:47:40;;;;;;;10.38;5.70;;;;;;;5.21;46.96;101340.94;8939594;32;20289;-73
2021/03/20 16:52:44;;;;;;;7.75;4.65;;;;;;;4.69;47.41;101337.78;8931898;32;20730;-73
2021/03/20 16:57:46;;;;;;;6.53;4.43;;;;;;;4.48;48.08;101328.00;8931523;32;20232;-73
2021/03/20 17:02:49;;;;;;;5.78;4.28;;;;;;;4.95;47.36;101333.16;8939679;32;20217;-74
2021/03/20 17:07:52;;;;;;;7.07;5.18;;;;;;;4.75;47.58;101326.88;8950541;32;20809;-73
2021/03/20 17:12:54;;;;;;;7.78;3.47;;;;;;;5.04;48.28;101317.66;8900133;32;20234;-73
2021/03/20 17:17:58;;;;;;;8.85;5.13;;;;;;;4.75;48.48;101313.56;8893381;33;20228;-73
2021/03/20 17:23:00;;;;;;;10.55;3.88;;;;;;;4.86;48.40;101306.94;8914204;33;20233;-73
2021/03/20 17:28:04;;;;;;;7.57;5.28;;;;;;;4.86;48.53;101302.47;8914220;33;20264;-73
2021/03/20 17:33:07;;;;;;;11.93;4.72;;;;;;;4.71;49.33;101295.13;8913945;33;20646;-72
2021/03/20 17:38:10;;;;;;;4.70;2.95;;;;;;;4.63;49.31;101290.09;8894910;33;20233;-74
2021/03/20 17:43:12;;;;;;;10.20;5.13;;;;;;;4.62;48.69;101299.03;8909456;33;20222;-74
2021/03/20 17:48:15;;;;;;;7.28;3.75;;;;;;;4.86;48.78;101294.47;8872816;33;20923;-74
2021/03/20 17:53:19;;;;;;;9.77;5.05;;;;;;;4.57;48.56;101293.03;8884627;33;20316;-73
2021/03/20 17:58:21;;;;;;;9.55;6.30;;;;;;;4.65;49.63;101288.25;8863299;33;20719;-74
2021/03/20 18:03:24;;;;;;;9.80;5.38;;;;;;;4.73;49.36;101287.94;8873351;33;20228;-75
2021/03/20 18:08:27;;;;;;;8.20;4.43;;;;;;;4.68;49.60;101266.81;8870956;33;20226;-74
2021/03/20 18:13:32;;;;;;;11.68;5.40;;;;;;;4.47;49.57;101268.63;8871383;33;20225;-75
2021/03/20 18:18:38;;;;;;;7.78;5.05;;;;;;;4.71;49.90;101276.47;8886412;33;20222;-76
2021/03/20 18:23:40;;;;;;;14.55;6.45;;;;;;;4.59;50.30;101268.09;8905480;33;20674;-75
2021/03/20 18:28:44;;;;;;;10.48;6.18;;;;;;;4.67;49.77;101262.44;8890421;33;20914;-76
2021/03/20 18:33:48;;;;;;;11.25;6.05;;;;;;;4.77;49.64;101262.91;8886061;33;20264;-76
2021/03/20 18:38:53;;;;;;;7.82;5.75;;;;;;;4.98;49.57;101253.13;8912963;33;20271;-76
2021/03/20 18:43:55;;;;;;;9.05;6.00;;;;;;;4.67;49.56;101246.47;8886746;33;21375;-76
2021/03/20 18:48:58;;;;;;;12.52;5.35;;;;;;;4.51;50.49;101246.25;8912315;33;20641;-75
2021/03/20 18:54:00;;;;;;;6.97;4.60;;;;;;;4.54;49.60;101237.28;8882551;33;20222;-75
2021/03/20 18:59:04;;;;;;;8.48;6.07;;;;;;;4.77;49.81;101238.94;8888257;33;20267;-75
2021/03/20 19:04:07;;;;;;;7.13;4.85;;;;;;;4.50;50.28;101231.22;8882376;33;20280;-76
2021/03/20 19:09:09;;;;;;;10.68;4.90;;;;;;;4.61;50.67;101228.97;8885747;33;21519;-76
2021/03/20 19:14:14;;;;;;;10.45;5.95;;;;;;;4.57;50.17;101227.38;8901399;33;20282;-76
2021/03/20 19:19:17;;;;;;;6.57;4.93;;;;;;;4.47;51.05;101217.16;8905391;33;20220;-76
2021/03/20 19:24:19;;;;;;;4.90;3.20;;;;;;;4.30;51.09;101226.72;8865945;33;20218;-75
2021/03/20 19:29:21;;;;;;;6.60;3.20;;;;;;;4.26;51.92;101221.63;8852755;33;20312;-74
2021/03/20 19:34:24;;;;;;;7.57;4.90;;;;;;;4.38;51.74;101221.94;8893627;33;20225;-75
2021/03/20 19:39:26;;;;;;;11.70;5.30;;;;;;;4.31;52.14;101220.50;8912167;33;20225;-76
2021/03/20 19:44:30;;;;;;;11.07;6.13;;;;;;;4.55;51.89;101210.63;8881698;33;20232;-76
2021/03/20 19:49:33;;;;;;;13.95;6.53;;;;;;;4.42;52.82;101211.22;8895418;33;20225;-76
2021/03/20 19:54:36;;;;;;;12.00;6.32;;;;;;;4.50;52.92;101199.31;8879871;33;20234;-75
2021/03/20 19:59:38;;;;;;;7.90;5.22;;;;;;;4.37;53.00;101201.59;8906951;33;20213;-76
2021/03/20 20:04:41;;;;;;;11.10;6.53;;;;;;;4.53;52.94;101198.31;8871636;33;20233;-76
2021/03/20 20:09:44;;;;;;;9.97;6.60;;;;;;;4.22;53.87;101196.91;8868601;33;20938;-76
2021/03/20 20:14:46;;;;;;;11.38;6.72;;;;;;;4.57;53.69;101202.56;8880769;33;20229;-76
2021/03/20 20:19:49;;;;;;;10.13;7.20;;;;;;;4.36;54.51;101199.00;8872307;33;20234;-76
2021/03/20 20:24:52;;;;;;;11.27;6.05;;;;;;;4.47;53.94;101196.78;8872203;33;20233;-76
2021/03/20 20:29:54;;;;;;;11.30;6.40;;;;;;;4.50;54.03;101186.00;8881086;33;20674;-76
2021/03/20 20:34:57;;;;;;;10.30;5.93;;;;;;;4.49;54.20;101184.25;8910741;33;20217;-76
2021/03/20 20:39:59;;;;;;;14.00;8.30;;;;;;;4.48;54.67;101190.50;8902702;33;20278;-75
2021/03/20 20:45:05;;;;;;;14.57;8.00;;;;;;;4.52;54.74;101178.78;8909976;33;20225;-75
2021/03/20 20:50:13;;;;;;;14.47;8.33;;;;;;;4.30;55.42;101183.31;8909591;33;20229;-75
2021/03/20 20:55:15;;;;;;;18.50;9.43;;;;;;;4.57;55.39;101189.25;8915460;33;20641;-76
2021/03/20 21:00:22;;;;;;;13.00;6.57;;;;;;;4.43;56.08;101173.88;8915633;33;20259;-74
2021/03/20 21:05:26;;;;;;;16.13;9.93;;;;;;;4.56;56.63;101168.91;8914857;33;20221;-76
2021/03/20 21:10:31;;;;;;;18.07;9.50;;;;;;;4.39;57.39;101172.28;8915415;33;20230;-75
2021/03/20 21:15:35;;;;;;;15.75;9.48;;;;;;;4.58;57.52;101161.69;8915595;33;20225;-75
2021/03/20 21:20:40;;;;;;;19.13;10.35;;;;;;;4.65;57.91;101157.84;8876054;33;20221;-75
2021/03/20 21:25:43;;;;;;;16.17;9.13;;;;;;;4.52;60.13;101156.66;8890501;33;20225;-75
2021/03/20 21:30:47;;;;;;;12.32;7.43;;;;;;;4.49;59.87;101149.66;8873560;33;20629;-74
2021/03/20 21:35:50;;;;;;;23.37;11.57;;;;;;;4.18;63.18;101150.97;8895667;33;20216;-75
2021/03/20 21:40:53;;;;;;;17.30;11.07;;;;;;;4.37;62.95;101147.53;8891768;33;20280;-74
2021/03/20 21:45:55;;;;;;;18.77;11.30;;;;;;;4.25;63.86;101137.41;8870196;33;20233;-75
2021/03/20 21:50:58;;;;;;;20.35;11.63;;;;;;;4.44;64.00;101129.50;8885704;33;20225;-75
2021/03/20 21:56:01;;;;;;;19.25;12.65;;;;;;;4.33;65.74;101124.66;8853105;33;20652;-75
2021/03/20 22:01:04;;;;;;;23.77;11.70;;;;;;;4.14;66.78;101106.84;8907787;33;20244;-74
2021/03/20 22:06:07;;;;;;;20.45;10.30;;;;;;;4.11;67.26;101108.75;8878314;33;20254;-75
2021/03/20 22:11:09;;;;;;;12.23;7.47;;;;;;;4.28;67.85;101108.03;8880783;33;20787;-75
2021/03/20 22:16:11;;;;;;;24.27;12.98;;;;;;;3.65;71.17;101105.38;8858870;33;20582;-75
2021/03/20 22:21:15;;;;;;;26.90;13.07;;;;;;;4.18;69.12;101092.47;8875424;33;20308;-73
2021/03/20 22:26:17;;;;;;;22.67;13.30;;;;;;;4.15;68.96;101092.59;8851111;33;20233;-74
2021/03/20 22:31:20;;;;;;;21.65;12.65;;;;;;;4.32;69.09;101086.56;8893171;33;20232;-73
2021/03/20 22:36:24;;;;;;;21.98;12.52;;;;;;;4.26;70.29;101083.31;8892945;33;20725;-75
2021/03/20 22:41:27;;;;;;;21.92;12.50;;;;;;;4.17;72.16;101065.97;8902592;33;20218;-74
2021/03/20 22:46:29;;;;;;;20.17;11.07;;;;;;;3.90;74.06;101068.00;8880928;33;20599;-75
2021/03/20 22:51:32;;;;;;;17.43;8.03;;;;;;;3.92;74.71;101050.19;8901355;33;20261;-74
2021/03/20 22:56:34;;;;;;;17.23;9.00;;;;;;;3.81;75.88;101044.44;8878981;33;20225;-75
2021/03/20 23:01:36;;;;;;;17.85;10.00;;;;;;;3.91;76.21;101045.81;8889707;33;20217;-74
2021/03/20 23:06:40;;;;;;;17.30;9.52;;;;;;;4.14;75.07;101028.84;8893579;33;20820;-74
2021/03/20 23:11:42;;;;;;;16.98;9.63;;;;;;;4.24;74.67;101027.50;8896904;33;20225;-75
2021/03/20 23:16:44;;;;;;;14.67;8.40;;;;;;;4.17;74.48;101020.75;8858418;33;20225;-74
2021/03/20 23:21:50;;;;;;;13.25;7.43;;;;;;;3.99;74.89;101030.38;8877110;33;20223;-75
2021/03/20 23:26:56;;;;;;;10.97;6.80;;;;;;;4.02;75.02;101016.94;8887405;33;20229;-74
2021/03/20 23:31:59;;;;;;;10.57;6.20;;;;;;;3.99;74.58;101037.50;8874006;33;20265;-74
2021/03/20 23:37:02;;;;;;;10.37;6.80;;;;;;;3.79;75.29;101038.38;8890206;33;20325;-75
2021/03/20 23:42:06;;;;;;;29.02;5.50;;;;;;;4.14;74.08;101034.16;8887550;33;20234;-75
2021/03/20 23:47:08;;;;;;;12.05;6.55;;;;;;;4.18;73.74;101031.31;8872564;33;20665;-74
2021/03/20 23:52:12;;;;;;;8.50;4.40;;;;;;;3.94;74.21;101029.72;8839548;33;20222;-74
2021/03/20 23:57:14;;;;;;;7.20;4.85;;;;;;;4.02;74.94;101014.28;8884260;33;20225;-75
